Time;durP1;ratioP1;P1;durP2;ratioP2;P2;SDS_P1;SDS_P2;PMS_P1;PMS_P2;Temp;Humidity;BMP_temperature;BMP_pressure;BME280_temperature;BME280_humidity;BME280_pressure;Samples;Min_cycle;Max_cycle;Signal;HPM_P1;HPM_P2
2023/02/09 00:01:09;;;;;;;13.00;10.67;;;0.80;90.70;;;;;;5027391;28;20036;-82
2023/02/09 00:03:35;;;;;;;12.87;10.43;;;0.80;91.00;;;;;;5046779;28;20560;-82
2023/02/09 00:06:02;;;;;;;12.37;10.17;;;0.80;91.10;;;;;;5044789;28;20393;-82
2023/02/09 00:08:32;;;;;;;13.37;10.10;;;0.80;91.00;;;;;;5043784;28;20056;-82
2023/02/09 00:10:58;;;;;;;12.47;10.60;;;0.80;91.00;;;;;;5030263;28;20051;-82
2023/02/09 00:13:24;;;;;;;11.60;9.57;;;0.80;91.00;;;;;;5012272;28;20040;-82
2023/02/09 00:16:00;;;;;;;13.80;10.13;;;0.90;90.90;;;;;;5010951;28;20474;-82
2023/02/09 00:18:30;;;;;;;12.13;10.40;;;0.80;90.70;;;;;;5009926;28;20045;-81
2023/02/09 00:21:05;;;;;;;11.80;10.18;;;0.90;90.60;;;;;;5028512;28;20045;-76
2023/02/09 00:23:32;;;;;;;14.57;10.27;;;1.00;90.70;;;;;;5029400;28;20052;-76
2023/02/09 00:26:04;;;;;;;12.53;9.57;;;0.90;90.90;;;;;;5046149;28;20056;-76
2023/02/09 00:28:30;;;;;;;13.03;10.30;;;1.00;90.70;;;;;;5027549;28;20048;-82
2023/02/09 00:30:56;;;;;;;11.73;9.90;;;1.00;90.70;;;;;;5013122;28;20037;-83
2023/02/09 00:33:22;;;;;;;11.70;9.87;;;1.00;90.70;;;;;;5015462;28;20059;-83
2023/02/09 00:35:48;;;;;;;11.40;10.00;;;1.00;90.70;;;;;;5030868;28;20036;-83
2023/02/09 00:38:14;;;;;;;11.60;9.73;;;0.90;90.80;;;;;;5014959;28;20053;-82
2023/02/09 00:40:40;;;;;;;11.63;10.17;;;0.90;91.00;;;;;;5032808;28;20399;-83
2023/02/09 00:43:08;;;;;;;11.67;10.47;;;0.90;91.20;;;;;;5030809;28;20582;-83
2023/02/09 00:45:36;;;;;;;12.63;9.85;;;0.80;91.10;;;;;;5013864;28;20547;-83
2023/02/09 00:48:02;;;;;;;11.90;9.60;;;0.80;91.30;;;;;;5013169;28;20098;-83
2023/02/09 00:50:28;;;;;;;12.73;10.50;;;0.80;91.40;;;;;;5011570;28;20129;-83
2023/02/09 00:52:54;;;;;;;15.13;10.33;;;0.70;91.30;;;;;;5048411;28;20127;-83
2023/02/09 00:55:20;;;;;;;12.50;10.70;;;0.70;91.50;;;;;;5009657;28;20037;-82
2023/02/09 00:57:46;;;;;;;13.83;10.30;;;0.70;91.60;;;;;;5024098;28;20042;-82
2023/02/09 01:00:13;;;;;;;11.53;10.30;;;0.70;91.70;;;;;;5027369;28;20602;-82
2023/02/09 01:02:39;;;;;;;12.73;10.73;;;0.70;91.80;;;;;;5041341;28;20048;-83
2023/02/09 01:05:05;;;;;;;13.77;10.60;;;0.70;91.90;;;;;;5014280;28;20047;-83
2023/02/09 01:07:32;;;;;;;13.47;11.00;;;0.60;92.10;;;;;;4991179;28;20394;-83
2023/02/09 01:09:58;;;;;;;12.73;10.80;;;0.60;92.10;;;;;;5026346;28;20135;-83
2023/02/09 01:12:25;;;;;;;12.43;10.37;;;0.60;92.20;;;;;;5010330;28;20072;-83
2023/02/09 01:14:51;;;;;;;12.60;10.67;;;0.60;92.30;;;;;;5025782;28;20063;-83
2023/02/09 01:17:17;;;;;;;12.17;10.07;;;0.50;92.60;;;;;;5029414;28;20071;-83
2023/02/09 01:19:43;;;;;;;13.53;11.33;;;0.60;92.90;;;;;;5027217;28;21015;-83
2023/02/09 01:22:15;;;;;;;12.97;11.03;;;0.50;93.00;;;;;;5026561;28;20388;-83
2023/02/09 01:24:40;;;;;;;11.80;10.50;;;0.50;93.10;;;;;;5041707;28;20048;-83
2023/02/09 01:27:06;;;;;;;12.27;10.03;;;0.50;93.20;;;;;;5012540;28;20040;-76
2023/02/09 01:29:32;;;;;;;14.07;11.27;;;0.50;93.20;;;;;;5024023;28;20039;-76
2023/02/09 01:31:58;;;;;;;13.60;10.57;;;0.50;93.30;;;;;;5007617;28;20041;-76
2023/02/09 01:34:23;;;;;;;13.23;10.50;;;0.40;93.40;;;;;;4996243;28;20067;-76
2023/02/09 01:36:49;;;;;;;15.27;10.77;;;0.40;93.60;;;;;;4995232;28;20076;-76
2023/02/09 01:39:16;;;;;;;13.27;10.60;;;0.30;93.80;;;;;;4997229;28;20051;-76
2023/02/09 01:41:42;;;;;;;12.03;10.73;;;0.30;94.00;;;;;;5047933;28;20131;-75
2023/02/09 01:44:14;;;;;;;14.63;11.50;;;0.30;94.10;;;;;;5026546;28;20050;-76
2023/02/09 01:46:39;;;;;;;12.80;11.40;;;0.30;94.20;;;;;;5026204;28;20051;-83
2023/02/09 01:49:16;;;;;;;12.87;10.60;;;0.30;94.30;;;;;;5011836;28;20044;-76
2023/02/09 01:52:05;;;;;;;14.27;11.20;;;0.30;94.30;;;;;;5028141;28;20045;-82
2023/02/09 01:54:39;;;;;;;13.43;11.80;;;0.30;94.40;;;;;;5040894;28;20084;-83
2023/02/09 01:57:14;;;;;;;12.70;11.30;;;0.30;94.40;;;;;;5021988;28;20170;-83
2023/02/09 01:59:44;;;;;;;14.27;11.20;;;0.30;94.50;;;;;;5026379;28;20659;-82
2023/02/09 02:02:11;;;;;;;14.10;11.18;;;0.20;94.60;;;;;;5039877;28;20561;-83
2023/02/09 02:04:38;;;;;;;13.67;12.23;;;0.20;94.80;;;;;;5021345;28;20119;-83
2023/02/09 02:07:17;;;;;;;14.57;10.93;;;0.30;95.10;;;;;;5018926;28;20033;-83
2023/02/09 02:09:44;;;;;;;13.97;12.13;;;0.20;95.10;;;;;;5041561;28;20051;-83
2023/02/09 02:12:10;;;;;;;14.07;12.30;;;0.20;95.20;;;;;;5023486;28;20053;-82
2023/02/09 02:14:41;;;;;;;15.20;11.63;;;0.20;95.20;;;;;;5024801;28;20242;-83
2023/02/09 02:17:06;;;;;;;;;;;0.20;95.30;;;;;;5036416;28;20044;-83
2023/02/09 02:19:47;;;;;;;14.07;11.70;;;0.10;95.30;;;;;;5020985;28;19970;-82
2023/02/09 02:22:17;;;;;;;14.40;11.67;;;0.10;95.50;;;;;;5023482;28;20045;-81
2023/02/09 02:24:46;;;;;;;15.10;11.93;;;0.10;95.70;;;;;;5039270;28;20040;-83
2023/02/09 02:27:28;;;;;;;14.17;10.90;;;0.00;95.70;;;;;;5024744;28;20049;-83
2023/02/09 02:30:02;;;;;;;12.83;11.10;;;0.10;95.90;;;;;;5038394;28;20056;-84
2023/02/09 02:33:03;;;;;;;13.23;11.20;;;0.10;96.10;;;;;;5036924;28;20115;-83
2023/02/09 02:35:41;;;;;;;12.87;11.30;;;0.10;96.00;;;;;;4997581;28;20044;-83
2023/02/09 02:38:34;;;;;;;13.70;11.50;;;0.10;96.20;;;;;;5023099;28;20454;-83
2023/02/09 02:41:07;;;;;;;13.73;11.70;;;0.10;96.30;;;;;;5017308;28;20053;-83
2023/02/09 02:43:56;;;;;;;13.60;11.13;;;0.10;96.60;;;;;;5022936;28;20043;-83
2023/02/09 02:46:45;;;;;;;14.87;11.57;;;0.10;96.70;;;;;;5021969;28;20047;-82
2023/02/09 02:49:15;;;;;;;14.23;11.67;;;0.10;96.90;;;;;;5030634;28;20047;-83
2023/02/09 02:51:44;;;;;;;12.75;10.77;;;0.10;97.10;;;;;;5040425;28;20041;-81
2023/02/09 02:54:19;;;;;;;13.37;10.90;;;0.10;97.40;;;;;;5024201;28;20072;-83
2023/02/09 02:57:00;;;;;;;13.37;10.60;;;0.10;97.50;;;;;;5038118;28;20605;-83
2023/02/09 02:59:31;;;;;;;13.93;12.20;;;0.10;97.90;;;;;;5026333;28;20105;-83
2023/02/09 03:01:59;;;;;;;;;;;0.00;98.20;;;;;;5019453;28;20698;-83
2023/02/09 03:04:30;;;;;;;13.33;11.20;;;0.00;98.30;;;;;;5031852;28;19971;-84
2023/02/09 03:06:56;;;;;;;14.80;11.23;;;0.00;98.60;;;;;;5036893;28;20049;-83
2023/02/09 03:09:22;;;;;;;14.47;11.43;;;0.00;98.60;;;;;;5040442;28;20407;-84
2023/02/09 03:11:50;;;;;;;17.87;11.83;;;0.00;98.60;;;;;;5032193;28;20047;-83
2023/02/09 03:14:35;;;;;;;14.90;11.17;;;0.00;98.60;;;;;;5028943;28;20045;-81
2023/02/09 03:17:39;;;;;;;14.30;11.33;;;0.00;98.50;;;;;;5033325;28;20044;-83
2023/02/09 03:20:13;;;;;;;12.90;10.90;;;0.00;98.90;;;;;;5014437;28;20041;-83
2023/02/09 03:22:45;;;;;;;14.43;10.97;;;0.00;98.70;;;;;;5011169;28;20055;-82
2023/02/09 03:25:25;;;;;;;13.53;10.27;;;0.00;98.70;;;;;;5016011;28;20094;-84
2023/02/09 03:27:57;;;;;;;13.18;10.95;;;0.10;98.70;;;;;;5011580;28;20045;-76
2023/02/09 03:30:24;;;;;;;13.10;11.00;;;0.00;98.90;;;;;;5040852;28;20111;-76
2023/02/09 03:32:55;;;;;;;12.43;10.47;;;0.00;99.00;;;;;;5010158;28;20052;-76
2023/02/09 03:35:24;;;;;;;13.10;10.57;;;0.00;98.90;;;;;;5028513;28;20053;-76
2023/02/09 03:37:50;;;;;;;12.65;10.25;;;0.00;98.90;;;;;;5012146;28;20085;-77
2023/02/09 03:40:18;;;;;;;13.83;10.77;;;0.10;98.90;;;;;;5029128;28;20084;-77
2023/02/09 03:42:44;;;;;;;15.73;11.07;;;0.00;98.90;;;;;;5027189;28;20107;-83
2023/02/09 03:45:10;;;;;;;11.87;10.03;;;0.00;98.90;;;;;;5021981;28;20045;-84
2023/02/09 03:47:36;;;;;;;12.50;9.93;;;0.10;98.90;;;;;;5007530;28;20065;-83
2023/02/09 03:50:05;;;;;;;12.60;10.53;;;0.00;98.90;;;;;;5042848;28;20565;-83
2023/02/09 03:52:32;;;;;;;14.13;10.70;;;0.10;98.80;;;;;;5034630;28;20049;-76
2023/02/09 03:54:58;;;;;;;12.00;10.17;;;0.10;99.00;;;;;;5019551;28;20050;-77
2023/02/09 03:57:24;;;;;;;12.13;10.20;;;0.10;98.50;;;;;;5028565;28;20053;-76
2023/02/09 03:59:50;;;;;;;12.93;10.63;;;0.10;98.50;;;;;;5030346;28;20032;-76
2023/02/09 04:02:16;;;;;;;12.87;10.33;;;0.10;98.50;;;;;;5008939;28;20056;-76
2023/02/09 04:04:41;;;;;;;15.77;10.57;;;0.10;98.40;;;;;;5026228;28;20234;-77
2023/02/09 04:07:07;;;;;;;15.10;10.23;;;0.10;98.20;;;;;;5008191;28;20132;-77
2023/02/09 04:09:33;;;;;;;15.07;11.17;;;0.20;98.10;;;;;;5021191;28;20068;-76
2023/02/09 04:11:59;;;;;;;14.13;10.47;;;0.20;98.10;;;;;;5039405;28;20051;-77
2023/02/09 04:14:24;;;;;;;14.93;11.10;;;0.10;98.20;;;;;;5013043;28;20044;-77
2023/02/09 04:16:50;;;;;;;13.07;10.33;;;0.10;98.30;;;;;;4998374;28;20065;-76
2023/02/09 04:19:16;;;;;;;12.80;9.57;;;0.00;98.30;;;;;;5031371;28;20139;-76
2023/02/09 04:21:42;;;;;;;11.63;10.13;;;0.10;98.00;;;;;;5025313;28;20535;-77
2023/02/09 04:24:08;;;;;;;13.17;10.23;;;0.20;98.00;;;;;;5013806;28;20043;-77
2023/02/09 04:26:35;;;;;;;13.33;10.23;;;0.10;97.90;;;;;;5020759;28;20045;-77
2023/02/09 04:29:00;;;;;;;15.33;10.00;;;0.30;97.80;;;;;;5039515;28;20065;-76
2023/02/09 04:31:27;;;;;;;11.53;9.50;;;0.20;97.60;;;;;;5030917;28;20136;-77
2023/02/09 04:33:52;;;;;;;12.87;9.53;;;0.10;97.60;;;;;;5020083;28;20059;-76
2023/02/09 04:36:19;;;;;;;12.70;9.93;;;0.30;97.40;;;;;;5009792;28;20080;-77
2023/02/09 04:38:45;;;;;;;12.30;9.70;;;0.20;97.50;;;;;;5029688;28;20105;-76
2023/02/09 04:41:11;;;;;;;12.23;9.07;;;0.20;97.40;;;;;;4997799;28;20048;-77
2023/02/09 04:43:37;;;;;;;12.47;9.73;;;0.20;97.30;;;;;;5014840;28;20041;-76
2023/02/09 04:46:02;;;;;;;12.07;9.60;;;0.20;97.10;;;;;;5012503;28;20037;-77
2023/02/09 04:48:29;;;;;;;15.47;9.97;;;0.20;97.00;;;;;;5029845;28;20110;-77
2023/02/09 04:50:55;;;;;;;14.57;10.33;;;0.20;97.10;;;;;;5019802;28;20515;-76
2023/02/09 04:53:21;;;;;;;13.60;10.77;;;0.20;97.10;;;;;;5024543;28;20052;-77
2023/02/09 04:55:47;;;;;;;12.50;9.87;;;0.20;97.00;;;;;;5018316;28;20048;-76
2023/02/09 05:01:03;;;;;;;12.32;9.77;;;0.20;96.90;;;;;;5026115;28;20041;-76
2023/02/09 05:03:29;;;;;;;13.10;9.70;;;0.10;96.80;;;;;;5015144;28;20676;-77
2023/02/09 05:05:56;;;;;;;11.83;9.97;;;0.10;97.00;;;;;;5019365;28;20432;-76
2023/02/09 05:08:23;;;;;;;12.97;10.27;;;0.10;97.00;;;;;;5020571;28;20499;-76
2023/02/09 05:10:50;;;;;;;13.20;10.10;;;0.10;97.50;;;;;;5034793;28;20040;-77
2023/02/09 05:13:17;;;;;;;12.03;9.70;;;0.10;97.40;;;;;;5036184;28;20410;-76
2023/02/09 05:15:42;;;;;;;11.10;9.80;;;0.10;97.50;;;;;;5036446;28;20040;-76
2023/02/09 05:18:09;;;;;;;13.23;10.33;;;0.10;97.20;;;;;;5027645;28;20127;-76
2023/02/09 05:20:35;;;;;;;11.73;9.40;;;0.10;97.30;;;;;;5010692;28;20486;-76
2023/02/09 05:23:01;;;;;;;11.27;9.60;;;0.00;97.20;;;;;;5017775;28;20072;-74
2023/02/09 05:25:28;;;;;;;12.27;10.10;;;0.00;97.30;;;;;;5021157;28;20037;-75
2023/02/09 05:27:54;;;;;;;13.23;9.93;;;0.00;97.30;;;;;;5010675;28;20080;-76
2023/02/09 05:30:20;;;;;;;12.57;10.70;;;0.00;97.30;;;;;;5023511;28;20044;-76
2023/02/09 05:32:46;;;;;;;11.60;10.20;;;0.00;97.50;;;;;;5028982;28;20400;-75
2023/02/09 05:35:12;;;;;;;14.50;10.17;;;0.00;97.70;;;;;;5031537;28;20052;-75
2023/02/09 05:37:37;;;;;;;13.93;10.47;;;-0.10;97.80;;;;;;5009298;28;20053;-74
2023/02/09 05:40:04;;;;;;;14.10;11.37;;;-0.10;97.80;;;;;;5014289;28;20074;-77
2023/02/09 05:42:30;;;;;;;12.97;10.73;;;-0.10;97.90;;;;;;5008575;28;20047;-75
2023/02/09 05:44:55;;;;;;;12.57;10.50;;;-0.10;97.90;;;;;;4993026;28;20036;-75
2023/02/09 05:47:23;;;;;;;15.07;11.50;;;-0.10;97.90;;;;;;4993195;28;20045;-75
2023/02/09 05:49:50;;;;;;;11.57;10.37;;;-0.10;98.10;;;;;;5025793;28;20040;-75
2023/02/09 05:52:18;;;;;;;12.83;10.70;;;-0.10;98.30;;;;;;5010698;28;20052;-75
2023/02/09 05:54:45;;;;;;;14.17;10.93;;;-0.20;98.50;;;;;;5012522;28;20044;-75
2023/02/09 05:57:11;;;;;;;12.47;10.50;;;-0.20;98.80;;;;;;5025229;28;20049;-75
2023/02/09 05:59:37;;;;;;;12.97;11.07;;;-0.20;99.10;;;;;;5010946;28;20133;-75
2023/02/09 06:02:03;;;;;;;12.57;10.13;;;-0.20;99.50;;;;;;5005743;28;20746;-75
2023/02/09 06:04:29;;;;;;;15.67;11.53;;;-0.30;99.70;;;;;;5040809;28;20324;-75
2023/02/09 06:06:55;;;;;;;13.47;10.60;;;-0.30;99.80;;;;;;5021536;28;20047;-75
2023/02/09 06:09:21;;;;;;;12.17;10.47;;;-0.30;99.90;;;;;;5024729;28;20152;-75
2023/02/09 06:11:48;;;;;;;15.93;11.10;;;-0.30;99.90;;;;;;5018855;28;20395;-75
2023/02/09 06:14:14;;;;;;;12.87;10.50;;;-0.30;99.90;;;;;;5016981;28;20040;-75
2023/02/09 06:16:40;;;;;;;12.87;10.23;;;-0.30;99.90;;;;;;5025436;28;20633;-76
2023/02/09 06:19:11;;;;;;;13.53;10.43;;;-0.40;99.90;;;;;;5019333;28;20069;-76
2023/02/09 06:21:40;;;;;;;12.17;10.83;;;-0.30;99.90;;;;;;5037470;28;20153;-76
2023/02/09 06:24:06;;;;;;;12.43;10.83;;;-0.30;99.90;;;;;;5007788;28;20041;-81
2023/02/09 06:26:31;;;;;;;12.20;10.83;;;-0.40;99.90;;;;;;5036460;28;20041;-82
2023/02/09 06:28:57;;;;;;;14.00;11.47;;;-0.40;99.90;;;;;;5005445;28;20045;-81
2023/02/09 06:31:23;;;;;;;15.60;11.17;;;-0.40;99.90;;;;;;5019203;28;20067;-82
2023/02/09 06:33:49;;;;;;;13.43;10.50;;;-0.30;99.90;;;;;;5021449;28;20059;-81
2023/02/09 06:36:15;;;;;;;14.57;10.73;;;-0.40;99.90;;;;;;5019679;28;20818;-82
2023/02/09 06:38:41;;;;;;;13.57;11.30;;;-0.30;99.90;;;;;;5017508;28;20042;-82
2023/02/09 06:41:06;;;;;;;14.17;11.13;;;-0.40;99.90;;;;;;4971318;28;20613;-81
2023/02/09 06:43:32;;;;;;;13.57;11.03;;;-0.40;99.90;;;;;;5016076;28;20103;-81
2023/02/09 06:46:03;;;;;;;14.03;11.83;;;-0.40;99.90;;;;;;5004855;28;20491;-81
2023/02/09 06:48:29;;;;;;;12.40;10.77;;;-0.40;99.90;;;;;;5004874;28;20044;-82
2023/02/09 06:50:55;;;;;;;12.67;10.90;;;-0.40;99.90;;;;;;4972465;28;20404;-82
2023/02/09 06:53:21;;;;;;;16.23;12.70;;;-0.50;99.90;;;;;;5015278;28;20362;-82
2023/02/09 06:55:46;;;;;;;13.80;10.70;;;-0.40;99.90;;;;;;4998202;28;20041;-81
2023/02/09 06:58:12;;;;;;;13.80;11.40;;;-0.50;99.90;;;;;;5005224;28;20395;-80
2023/02/09 07:00:38;;;;;;;13.43;11.20;;;-0.50;99.90;;;;;;4997421;28;20604;-74
2023/02/09 07:03:04;;;;;;;12.97;11.17;;;-0.60;99.90;;;;;;4981056;28;20052;-74
2023/02/09 07:05:30;;;;;;;12.53;10.77;;;-0.50;99.90;;;;;;4969146;28;20036;-73
2023/02/09 07:07:56;;;;;;;12.50;11.03;;;-0.50;99.90;;;;;;4999783;28;20060;-74
2023/02/09 07:10:22;;;;;;;13.57;10.97;;;-0.50;99.90;;;;;;4981792;28;20102;-73
2023/02/09 07:12:47;;;;;;;13.23;10.70;;;-0.50;99.90;;;;;;5000452;28;20041;-73
2023/02/09 07:15:13;;;;;;;13.70;11.07;;;-0.50;99.90;;;;;;5010182;28;20041;-73
2023/02/09 07:17:41;;;;;;;13.47;10.53;;;-0.40;99.90;;;;;;5002294;28;20072;-73
2023/02/09 07:20:11;;;;;;;13.80;11.23;;;-0.40;99.90;;;;;;5005633;28;20137;-73
2023/02/09 07:22:36;;;;;;;14.75;11.30;;;-0.40;99.90;;;;;;5039091;28;20053;-73
2023/02/09 07:25:02;;;;;;;11.10;9.50;;;-0.40;99.90;;;;;;5001194;28;20065;-73
2023/02/09 07:27:28;;;;;;;12.50;11.03;;;-0.40;99.90;;;;;;5003438;28;20079;-73
2023/02/09 07:29:53;;;;;;;15.83;10.80;;;-0.30;99.90;;;;;;5006452;28;20132;-74
2023/02/09 07:32:21;;;;;;;12.87;10.83;;;-0.30;99.90;;;;;;5018514;28;20049;-74
2023/02/09 07:34:47;;;;;;;15.43;11.53;;;-0.30;99.90;;;;;;4976503;28;20045;-74
2023/02/09 07:37:13;;;;;;;13.73;11.63;;;-0.20;99.90;;;;;;4997334;28;20049;-73
2023/02/09 07:39:39;;;;;;;12.43;10.77;;;-0.10;99.90;;;;;;5015947;28;20046;-73
2023/02/09 07:42:05;;;;;;;12.43;10.37;;;-0.10;99.90;;;;;;5001644;28;20051;-73
2023/02/09 07:44:30;;;;;;;12.87;11.10;;;-0.10;99.90;;;;;;5021991;28;20052;-73
2023/02/09 07:46:56;;;;;;;13.47;11.07;;;-0.10;99.90;;;;;;4975496;28;20044;-75
2023/02/09 07:49:22;;;;;;;11.77;10.37;;;0.00;99.90;;;;;;4990683;28;20119;-75
2023/02/09 07:51:48;;;;;;;14.03;10.63;;;0.00;99.90;;;;;;4989169;28;20076;-74
2023/02/09 07:54:14;;;;;;;14.03;10.77;;;0.00;99.90;;;;;;5016496;28;20037;-75
2023/02/09 07:56:41;;;;;;;12.37;10.70;;;0.00;99.90;;;;;;5008222;28;20558;-75
2023/02/09 07:59:08;;;;;;;12.23;10.27;;;0.10;99.90;;;;;;5006744;28;20088;-74
2023/02/09 08:01:34;;;;;;;14.57;11.20;;;0.10;99.90;;;;;;5025918;28;20053;-75
2023/02/09 08:04:00;;;;;;;14.40;10.77;;;0.10;99.90;;;;;;5004977;28;20092;-74
2023/02/09 08:06:44;;;;;;;12.87;10.43;;;0.10;99.90;;;;;;4994441;28;20044;-74
2023/02/09 08:09:12;;;;;;;13.10;11.23;;;0.20;99.90;;;;;;5007326;28;20561;-73
2023/02/09 08:11:39;;;;;;;14.53;11.17;;;0.20;99.90;;;;;;5025199;28;20063;-73
2023/02/09 08:14:11;;;;;;;13.70;10.83;;;0.30;99.90;;;;;;5009023;28;20041;-74
2023/02/09 08:16:37;;;;;;;14.90;11.20;;;0.30;99.90;;;;;;5026568;28;20460;-74
2023/02/09 08:19:09;;;;;;;13.47;10.87;;;0.40;99.90;;;;;;5009621;28;20090;-74
2023/02/09 08:21:40;;;;;;;14.57;11.40;;;0.40;99.90;;;;;;5009770;28;20041;-74
2023/02/09 08:24:07;;;;;;;12.97;11.00;;;0.40;99.90;;;;;;5025483;28;20041;-74
2023/02/09 08:26:34;;;;;;;13.63;10.80;;;0.40;99.90;;;;;;5008628;28;20124;-74
2023/02/09 08:29:00;;;;;;;12.03;10.33;;;0.40;99.90;;;;;;5022399;28;20056;-74
2023/02/09 08:31:27;;;;;;;15.13;10.93;;;0.50;99.90;;;;;;4978160;28;20052;-74
2023/02/09 08:33:53;;;;;;;14.43;10.87;;;0.50;99.90;;;;;;5006162;28;20355;-73
2023/02/09 08:36:19;;;;;;;13.00;10.60;;;0.60;99.90;;;;;;4992931;28;20068;-73
2023/02/09 08:38:46;;;;;;;13.10;10.57;;;0.60;99.90;;;;;;5019017;28;20045;-73
2023/02/09 08:41:14;;;;;;;14.57;11.13;;;0.60;99.90;;;;;;4992924;28;20072;-73
2023/02/09 08:43:40;;;;;;;14.20;11.07;;;0.70;99.90;;;;;;5025250;28;20483;-73
2023/02/09 08:46:09;;;;;;;14.30;11.40;;;0.70;99.90;;;;;;4994257;28;20043;-73
2023/02/09 08:48:36;;;;;;;13.37;11.03;;;0.80;99.80;;;;;;5004902;28;20044;-73
2023/02/09 08:51:03;;;;;;;13.87;11.13;;;0.80;99.50;;;;;;5022262;28;20041;-73
2023/02/09 08:53:29;;;;;;;13.17;11.70;;;0.80;99.40;;;;;;5022982;28;20059;-73
2023/02/09 08:55:55;;;;;;;14.30;11.90;;;0.90;99.50;;;;;;5001516;28;20053;-73
2023/02/09 08:58:21;;;;;;;13.40;11.43;;;1.00;99.30;;;;;;5024220;28;20044;-74
2023/02/09 09:00:47;;;;;;;12.93;10.60;;;0.90;99.20;;;;;;4995446;28;20076;-73
2023/02/09 09:03:13;;;;;;;13.93;12.00;;;1.00;99.20;;;;;;5008413;28;20047;-73
2023/02/09 09:05:39;;;;;;;14.47;10.93;;;1.10;99.30;;;;;;5022328;28;20041;-73
2023/02/09 09:08:05;;;;;;;13.63;11.83;;;1.10;99.40;;;;;;5010613;28;20037;-73
2023/02/09 09:10:31;;;;;;;13.50;11.67;;;1.10;99.40;;;;;;5022115;28;20083;-75
2023/02/09 09:12:57;;;;;;;13.40;11.37;;;1.30;99.50;;;;;;5026054;28;20432;-73
2023/02/09 09:15:23;;;;;;;13.73;12.30;;;1.30;98.70;;;;;;5023532;28;20072;-74
2023/02/09 09:17:52;;;;;;;15.03;12.80;;;1.30;98.70;;;;;;5021579;28;20037;-74
2023/02/09 09:20:17;;;;;;;15.53;11.63;;;1.30;98.90;;;;;;5029113;28;20052;-73
2023/02/09 09:22:43;;;;;;;14.67;12.03;;;1.30;99.00;;;;;;5020691;28;20488;-74
2023/02/09 09:25:09;;;;;;;14.10;12.60;;;1.40;99.00;;;;;;5022685;28;20159;-75
2023/02/09 09:27:35;;;;;;;15.27;11.50;;;1.40;99.00;;;;;;5006051;28;20099;-73
2023/02/09 09:30:03;;;;;;;14.70;13.00;;;1.50;98.70;;;;;;4994482;28;20048;-73
2023/02/09 09:32:29;;;;;;;21.40;17.47;;;1.50;98.90;;;;;;5005731;28;20056;-74
2023/02/09 09:35:02;;;;;;;16.60;12.37;;;1.50;99.10;;;;;;5008417;28;20049;-75
2023/02/09 09:37:28;;;;;;;14.83;12.63;;;1.60;98.90;;;;;;5016130;28;20048;-75
2023/02/09 09:39:54;;;;;;;13.47;11.67;;;1.60;99.00;;;;;;5019054;28;20055;-74
2023/02/09 09:42:35;;;;;;;15.87;12.20;;;1.70;99.10;;;;;;5025896;28;20049;-75
2023/02/09 09:45:04;;;;;;;14.07;12.53;;;1.80;99.20;;;;;;5028144;28;20049;-75
2023/02/09 09:47:41;;;;;;;14.40;12.70;;;1.80;99.30;;;;;;5042040;28;20050;-75
2023/02/09 09:50:19;;;;;;;13.93;12.17;;;1.80;99.30;;;;;;5043544;28;20063;-76
2023/02/09 09:52:53;;;;;;;13.83;12.10;;;1.90;99.30;;;;;;5044145;28;20123;-76
2023/02/09 09:55:23;;;;;;;13.63;11.90;;;1.90;99.40;;;;;;5022334;28;20572;-76
2023/02/09 09:57:54;;;;;;;14.57;11.93;;;2.00;99.30;;;;;;5023377;28;20037;-75
2023/02/09 10:00:26;;;;;;;15.10;12.60;;;2.10;99.10;;;;;;5038939;28;20036;-76
2023/02/09 10:02:53;;;;;;;14.80;12.73;;;2.10;99.10;;;;;;5024921;28;20063;-75
2023/02/09 10:05:22;;;;;;;14.60;12.27;;;2.20;99.10;;;;;;5043088;28;20574;-74
2023/02/09 10:07:54;;;;;;;14.90;12.73;;;2.30;99.30;;;;;;5021515;28;20427;-74
2023/02/09 10:10:42;;;;;;;15.03;12.80;;;2.30;99.10;;;;;;5034420;28;20052;-74
2023/02/09 10:13:20;;;;;;;17.30;13.27;;;2.40;98.80;;;;;;5043366;28;20047;-73
2023/02/09 10:15:48;;;;;;;17.13;14.43;;;2.50;98.80;;;;;;5027024;28;20090;-74
2023/02/09 10:18:16;;;;;;;15.30;12.70;;;2.60;99.00;;;;;;5039112;28;20545;-73
2023/02/09 10:21:05;;;;;;;16.48;12.98;;;2.60;99.20;;;;;;5038799;28;20037;-74
2023/02/09 10:23:41;;;;;;;15.53;12.97;;;2.70;99.10;;;;;;5038925;28;20142;-72
2023/02/09 10:26:07;;;;;;;16.00;12.87;;;2.80;99.00;;;;;;5019538;28;20391;-73
2023/02/09 10:28:39;;;;;;;14.17;12.70;;;2.80;99.10;;;;;;5022158;28;20048;-73
2023/02/09 10:31:17;;;;;;;15.93;13.38;;;2.90;99.30;;;;;;5041327;28;20949;-74
2023/02/09 10:33:45;;;;;;;14.88;13.27;;;2.90;99.30;;;;;;5037439;28;20049;-74
2023/02/09 10:36:45;;;;;;;15.43;13.30;;;2.90;99.70;;;;;;5039258;28;20044;-74
2023/02/09 10:39:43;;;;;;;15.98;13.75;;;3.00;99.50;;;;;;5009259;28;20052;-73
2023/02/09 10:42:29;;;;;;;15.20;12.52;;;3.00;99.40;;;;;;5009238;28;20045;-74
2023/02/09 10:44:57;;;;;;;15.75;13.38;;;3.10;99.70;;;;;;5039630;28;20045;-75
2023/02/09 10:47:22;;;;;;;18.17;14.97;;;3.10;99.50;;;;;;5020566;28;20630;-74
2023/02/09 10:49:54;;;;;;;18.25;14.57;;;3.10;99.80;;;;;;5042417;28;20075;-73
2023/02/09 10:52:23;;;;;;;17.13;14.00;;;3.10;99.90;;;;;;5017556;28;20083;-74
2023/02/09 10:54:50;;;;;;;16.90;14.32;;;3.10;99.90;;;;;;5017836;28;20072;-73
2023/02/09 10:57:28;;;;;;;17.03;14.20;;;3.10;99.90;;;;;;5041043;28;20032;-73
2023/02/09 11:00:21;;;;;;;16.45;14.18;;;3.10;99.90;;;;;;5039611;28;20040;-73
2023/02/09 11:02:51;;;;;;;17.17;14.30;;;3.10;99.90;;;;;;5002463;28;20609;-73
2023/02/09 11:05:20;;;;;;;15.88;14.05;;;3.20;99.90;;;;;;5024837;28;20037;-73
2023/02/09 11:08:12;;;;;;;17.13;14.30;;;3.20;99.90;;;;;;5022814;28;20151;-74
2023/02/09 11:10:52;;;;;;;16.20;14.38;;;3.20;99.90;;;;;;5012020;28;20057;-73
2023/02/09 11:13:23;;;;;;;16.90;14.90;;;3.30;99.90;;;;;;5039556;28;20048;-74
2023/02/09 11:16:10;;;;;;;18.83;15.27;;;3.30;99.90;;;;;;5040982;28;20047;-74
2023/02/09 11:18:41;;;;;;;18.48;16.05;;;3.40;99.90;;;;;;5018688;28;20131;-73
2023/02/09 11:21:21;;;;;;;;;;;3.50;99.90;;;;;;5022841;28;20056;-73
2023/02/09 11:23:47;;;;;;;17.60;15.63;;;3.40;99.90;;;;;;5034044;28;19921;-73
2023/02/09 11:26:37;;;;;;;18.40;15.90;;;3.50;99.90;;;;;;5020123;28;20110;-74
2023/02/09 11:29:19;;;;;;;17.85;15.93;;;3.60;99.90;;;;;;5027482;28;20048;-75
2023/02/09 11:32:03;;;;;;;16.55;14.68;;;3.70;99.90;;;;;;5034837;28;20102;-75
2023/02/09 11:34:35;;;;;;;17.98;16.08;;;3.80;99.90;;;;;;5038689;28;20079;-75
2023/02/09 11:37:39;;;;;;;17.80;15.73;;;3.90;99.90;;;;;;5037154;28;20045;-74
2023/02/09 11:40:14;;;;;;;17.38;15.55;;;3.90;99.90;;;;;;5003200;28;20041;-76
2023/02/09 11:42:47;;;;;;;18.42;16.63;;;3.90;99.90;;;;;;5024698;28;20098;-76
2023/02/09 11:45:18;;;;;;;19.45;16.58;;;3.90;99.90;;;;;;5041668;28;20119;-76
2023/02/09 11:47:43;;;;;;;17.83;15.48;;;3.90;99.90;;;;;;5030744;28;20079;-76
2023/02/09 11:50:20;;;;;;;19.73;17.05;;;4.00;99.90;;;;;;5013087;28;20044;-76
2023/02/09 11:52:54;;;;;;;20.08;16.23;;;4.00;99.90;;;;;;5030001;28;20115;-76
2023/02/09 11:55:36;;;;;;;18.48;16.35;;;4.00;99.90;;;;;;5009797;28;20090;-76
2023/02/09 11:58:31;;;;;;;18.00;16.10;;;4.00;99.90;;;;;;5018830;28;21001;-76
2023/02/09 12:01:29;;;;;;;20.05;16.90;;;4.00;99.90;;;;;;5016859;28;20044;-75
2023/02/09 12:04:11;;;;;;;19.05;17.08;;;4.00;99.90;;;;;;5028976;28;20056;-76
2023/02/09 12:06:48;;;;;;;19.13;16.90;;;4.10;99.90;;;;;;5031839;28;20110;-75
2023/02/09 12:09:39;;;;;;;19.83;17.73;;;4.20;99.90;;;;;;5035923;28;20072;-76
2023/02/09 12:12:29;;;;;;;19.50;17.33;;;4.20;99.90;;;;;;5022625;28;20048;-76
2023/02/09 12:15:36;;;;;;;19.70;17.80;;;4.20;99.90;;;;;;5031466;28;20132;-76
2023/02/09 12:18:09;;;;;;;21.38;19.10;;;4.30;99.90;;;;;;5002869;28;20052;-76
2023/02/09 12:20:35;;;;;;;20.45;18.25;;;4.30;99.90;;;;;;5023081;28;20568;-75
2023/02/09 12:23:14;;;;;;;20.90;18.67;;;4.30;99.90;;;;;;5038253;28;20072;-75
2023/02/09 12:25:51;;;;;;;23.17;19.52;;;4.40;99.90;;;;;;5036534;28;20045;-76
2023/02/09 12:28:22;;;;;;;21.75;19.48;;;4.40;99.90;;;;;;5020625;28;20048;-76
2023/02/09 12:30:48;;;;;;;20.55;17.95;;;4.40;99.90;;;;;;5013425;28;20037;-76
2023/02/09 12:33:17;;;;;;;22.38;19.08;;;4.50;99.90;;;;;;5030694;28;20117;-76
2023/02/09 12:36:08;;;;;;;21.25;18.95;;;4.50;99.90;;;;;;5023049;28;20170;-75
2023/02/09 12:38:45;;;;;;;23.13;20.27;;;4.50;99.90;;;;;;5027333;28;20036;-76
2023/02/09 12:41:12;;;;;;;23.80;21.20;;;4.50;99.90;;;;;;5034977;28;20057;-75
2023/02/09 12:43:39;;;;;;;24.88;20.67;;;4.50;99.90;;;;;;5016287;28;20041;-76
2023/02/09 12:46:28;;;;;;;23.27;20.45;;;4.40;99.90;;;;;;5037868;28;20033;-75
2023/02/09 12:49:00;;;;;;;23.55;19.58;;;4.50;99.90;;;;;;5031069;28;20057;-75
2023/02/09 12:51:45;;;;;;;23.17;19.88;;;4.50;99.90;;;;;;5025492;28;20053;-77
2023/02/09 12:54:40;;;;;;;22.33;19.63;;;4.50;99.90;;;;;;5034960;28;20579;-75
2023/02/09 12:57:15;;;;;;;23.27;19.85;;;4.50;99.90;;;;;;5031426;28;20119;-75